Angle, Utah
Current Conditions -  °F | °C
As of 8:53 AM on Saturday 22 Nov 2014 (Local Time) from KBCE Reporting Station
Clear Clear  
Wind Chill: 29°   Ceiling: Unl
Heat Index: 29°   Visibility: 10mi
Dew Point: 22°   Wind: 0mph
Humidity: 75%   Direction: NA
Pressure: 30.1"   Gusts: NA
Location:  37.9601°N, 112.141°W
Report Text: KBCE 221553Z AUTO 00000KT 10SM CLR M02/M06 A3010 RMK AO2 SLP183 T10171056
Loading
Personal Weather Stations






























Interactive Weather Map New forecast layout! Learn more

10-Day Weather Forecast

Advertisements
Track Severe Weather on mobile